createdAt,value
2023-02-05T00:00:56.117Z,2.42
2023-02-05T00:03:23.277Z,2.35
2023-02-05T00:05:51.177Z,2.17
2023-02-05T00:08:18.359Z,2.67
2023-02-05T00:10:45.499Z,2.38
2023-02-05T00:13:12.657Z,2.28
2023-02-05T00:15:42.872Z,2.15
2023-02-05T00:18:10.115Z,2.92
2023-02-05T00:20:37.330Z,2.13
2023-02-05T00:23:04.570Z,2.30
2023-02-05T00:25:32.248Z,2.20
2023-02-05T00:27:59.618Z,2.50
2023-02-05T00:30:28.387Z,2.15
2023-02-05T00:32:55.581Z,2.00
2023-02-05T00:35:22.727Z,2.50
2023-02-05T00:37:49.910Z,2.25
2023-02-05T00:40:17.200Z,2.42
2023-02-05T00:42:44.339Z,2.50
2023-02-05T00:45:11.499Z,2.20
2023-02-05T00:47:38.647Z,2.55
2023-02-05T00:50:06.029Z,2.42
2023-02-05T00:52:33.179Z,2.42
2023-02-05T00:55:00.411Z,2.30
2023-02-05T00:57:27.644Z,2.30
2023-02-05T00:59:55.376Z,2.10
2023-02-05T01:02:24.195Z,2.55
2023-02-05T01:04:55.714Z,2.10
2023-02-05T01:07:22.920Z,2.60
2023-02-05T01:09:50.120Z,4.05
2023-02-05T01:12:17.298Z,2.20
2023-02-05T01:14:44.478Z,2.70
2023-02-05T01:17:11.704Z,2.70
2023-02-05T01:19:38.888Z,2.40
2023-02-05T01:22:06.524Z,2.70
2023-02-05T01:24:33.738Z,2.80
2023-02-05T01:27:00.972Z,3.10
2023-02-05T01:29:29.394Z,3.00
2023-02-05T01:31:57.147Z,3.33
2023-02-05T01:34:24.831Z,3.42
2023-02-05T01:36:51.981Z,4.03
2023-02-05T01:39:19.255Z,4.50
2023-02-05T01:41:46.582Z,5.03
2023-02-05T01:44:15.140Z,3.88
2023-02-05T01:46:43.558Z,3.78
2023-02-05T01:49:15.104Z,4.30
2023-02-05T01:51:42.342Z,4.72
2023-02-05T01:54:09.548Z,4.15
2023-02-05T01:56:38.343Z,4.38
2023-02-05T01:59:10.956Z,4.90
2023-02-05T02:01:39.548Z,5.05
2023-02-05T02:04:07.106Z,4.50
2023-02-05T02:06:35.643Z,4.35
2023-02-05T02:09:03.369Z,4.82
2023-02-05T02:11:32.036Z,4.60
2023-02-05T02:14:00.214Z,4.93
2023-02-05T02:16:28.492Z,5.00
2023-02-05T02:18:55.828Z,4.90
2023-02-05T02:21:41.929Z,4.50
2023-02-05T02:24:21.419Z,4.70
2023-02-05T02:26:51.606Z,4.70
2023-02-05T02:29:23.754Z,4.50
2023-02-05T02:31:57.357Z,4.32
2023-02-05T02:34:31.081Z,4.65
2023-02-05T02:36:58.235Z,4.50
2023-02-05T02:39:28.151Z,4.15
2023-02-05T02:41:55.479Z,4.60
2023-02-05T02:44:41.395Z,4.40
2023-02-05T02:47:13.334Z,4.88
2023-02-05T02:49:43.686Z,4.78
2023-02-05T02:52:12.537Z,4.15
2023-02-05T02:54:41.928Z,5.07
2023-02-05T02:57:10.424Z,4.80
2023-02-05T02:59:39.238Z,4.95
2023-02-05T03:02:07.227Z,5.30
2023-02-05T03:04:37.113Z,4.85
2023-02-05T03:07:11.190Z,4.82
2023-02-05T03:09:41.366Z,4.93
2023-02-05T03:12:08.498Z,4.40
2023-02-05T03:14:36.475Z,4.75
2023-02-05T03:17:03.823Z,5.25
2023-02-05T03:19:31.402Z,4.28
2023-02-05T03:22:01.118Z,4.90
2023-02-05T03:24:28.264Z,5.30
2023-02-05T03:26:55.558Z,5.25
2023-02-05T03:29:31.196Z,5.22
2023-02-05T03:31:58.325Z,5.25
2023-02-05T03:34:37.778Z,4.90
2023-02-05T03:37:19.067Z,5.70
2023-02-05T03:39:50.511Z,5.47
2023-02-05T03:42:36.607Z,5.60
2023-02-05T03:45:16.130Z,5.68
2023-02-05T03:47:55.327Z,4.93
2023-02-05T03:50:30.750Z,4.95
2023-02-05T03:53:00.192Z,5.30
2023-02-05T03:55:30.099Z,5.03
2023-02-05T03:57:57.222Z,5.00
2023-02-05T04:00:25.131Z,5.70
2023-02-05T04:02:52.279Z,5.85
2023-02-05T04:05:22.876Z,5.70
2023-02-05T04:07:50.868Z,5.22
2023-02-05T04:10:18.545Z,5.43
2023-02-05T04:12:45.948Z,5.00
2023-02-05T04:15:13.099Z,4.70
2023-02-05T04:17:40.661Z,4.68
2023-02-05T04:20:08.871Z,4.68
2023-02-05T04:22:36.074Z,4.40
2023-02-05T04:25:03.180Z,5.03
2023-02-05T04:27:30.376Z,4.40
2023-02-05T04:29:57.587Z,4.45
2023-02-05T04:32:24.858Z,4.93
2023-02-05T04:34:52.115Z,4.78
2023-02-05T04:37:19.327Z,5.00
2023-02-05T04:39:47.585Z,5.05
2023-02-05T04:42:14.761Z,4.43
2023-02-05T04:44:43.191Z,3.90
2023-02-05T04:47:10.371Z,4.60
2023-02-05T04:49:37.782Z,4.22
2023-02-05T04:52:04.989Z,3.80
2023-02-05T04:54:32.159Z,4.03
2023-02-05T04:56:59.344Z,4.00
2023-02-05T04:59:26.553Z,3.88
2023-02-05T05:01:53.694Z,5.00
2023-02-05T05:04:20.836Z,4.22
2023-02-05T05:06:47.996Z,4.00
2023-02-05T05:09:15.289Z,4.07
2023-02-05T05:11:42.499Z,4.15
2023-02-05T05:14:09.676Z,4.00
2023-02-05T05:16:36.845Z,3.78
2023-02-05T05:19:04.002Z,3.90
2023-02-05T05:21:31.317Z,3.80
2023-02-05T05:23:58.455Z,4.45
2023-02-05T05:26:25.607Z,4.00
2023-02-05T05:28:56.063Z,3.90
2023-02-05T05:31:23.684Z,3.50
2023-02-05T05:33:50.988Z,3.88
2023-02-05T05:36:18.143Z,3.97
2023-02-05T05:38:45.378Z,3.30
2023-02-05T05:41:37.096Z,3.63
2023-02-05T05:44:04.352Z,3.50
2023-02-05T05:46:31.576Z,3.58
2023-02-05T05:48:59.745Z,3.83
2023-02-05T05:51:28.347Z,3.38
2023-02-05T05:53:55.925Z,3.40
2023-02-05T05:56:23.163Z,3.65
2023-02-05T05:58:50.345Z,4.15
2023-02-05T06:01:19.142Z,3.80
2023-02-05T06:03:46.352Z,3.55
2023-02-05T06:06:13.742Z,3.92
2023-02-05T06:08:40.962Z,3.15
2023-02-05T06:11:08.114Z,3.55
2023-02-05T06:13:35.340Z,3.17
2023-02-05T06:16:02.760Z,3.13
2023-02-05T06:18:30.446Z,3.60
2023-02-05T06:20:57.586Z,3.42
2023-02-05T06:23:24.742Z,3.25
2023-02-05T06:25:52.161Z,3.20
2023-02-05T06:28:19.617Z,3.25
2023-02-05T06:30:46.894Z,3.35
2023-02-05T06:33:14.201Z,3.33
2023-02-05T06:35:41.762Z,3.08
2023-02-05T06:38:09.033Z,3.22
2023-02-05T06:40:36.413Z,3.40
2023-02-05T06:43:04.333Z,3.30
2023-02-05T06:45:31.600Z,3.15
2023-02-05T06:47:59.115Z,3.22
2023-02-05T06:50:26.422Z,3.28
2023-02-05T06:52:53.580Z,3.30
2023-02-05T06:55:20.936Z,3.10
2023-02-05T06:57:48.039Z,3.90
2023-02-05T07:00:15.861Z,3.38
2023-02-05T07:02:43.258Z,3.63
2023-02-05T07:05:10.485Z,3.60
2023-02-05T07:07:37.707Z,3.75
2023-02-05T07:10:05.891Z,4.10
2023-02-05T07:12:33.119Z,4.25
2023-02-05T07:15:00.351Z,4.53
2023-02-05T07:17:27.563Z,3.90
2023-02-05T07:19:54.743Z,5.03
2023-02-05T07:22:21.888Z,4.53
2023-02-05T07:24:49.074Z,4.55
2023-02-05T07:27:16.295Z,4.50
2023-02-05T07:29:43.520Z,4.57
2023-02-05T07:32:10.763Z,4.28
2023-02-05T07:34:37.991Z,3.95
2023-02-05T07:37:05.143Z,3.72
2023-02-05T07:39:33.506Z,3.55
2023-02-05T07:42:01.254Z,3.70
2023-02-05T07:44:28.537Z,3.58
2023-02-05T07:46:55.774Z,3.60
2023-02-05T07:49:23.142Z,4.10
2023-02-05T07:51:50.301Z,4.47
2023-02-05T07:54:17.585Z,3.95
2023-02-05T07:56:44.718Z,3.90
2023-02-05T07:59:11.941Z,4.05
2023-02-05T08:01:39.217Z,4.32
2023-02-05T08:04:06.401Z,4.85
2023-02-05T08:06:34.001Z,4.57
2023-02-05T08:09:01.265Z,4.25
2023-02-05T08:11:28.392Z,4.18
2023-02-05T08:13:55.545Z,4.13
2023-02-05T08:16:22.720Z,3.70
2023-02-05T08:18:50.887Z,3.35
2023-02-05T08:21:18.823Z,3.60
2023-02-05T08:23:45.979Z,3.47
2023-02-05T08:26:14.971Z,4.18
2023-02-05T08:28:42.918Z,3.42
2023-02-05T08:31:14.037Z,3.70
2023-02-05T08:33:41.425Z,3.30
2023-02-05T08:36:09.175Z,3.67
2023-02-05T08:38:36.378Z,3.28
2023-02-05T08:41:12.410Z,3.35
2023-02-05T08:43:40.851Z,3.55
2023-02-05T08:46:08.495Z,3.58
2023-02-05T08:48:35.880Z,3.50
2023-02-05T08:51:03.790Z,3.38
2023-02-05T08:53:31.984Z,3.78
2023-02-05T08:56:00.304Z,3.33
2023-02-05T08:58:27.489Z,3.55
2023-02-05T09:01:00.697Z,3.85
2023-02-05T09:03:27.971Z,2.95
2023-02-05T09:05:55.153Z,3.25
2023-02-05T09:08:22.328Z,3.30
2023-02-05T09:10:49.492Z,3.35
2023-02-05T09:13:16.766Z,3.08
2023-02-05T09:15:45.527Z,3.20
2023-02-05T09:18:13.979Z,3.38
2023-02-05T09:20:44.979Z,3.22
2023-02-05T09:23:12.920Z,3.30
2023-02-05T09:25:40.465Z,3.35
2023-02-05T09:28:09.412Z,3.92
2023-02-05T09:30:40.295Z,3.47
2023-02-05T09:33:07.596Z,3.53
2023-02-05T09:35:35.807Z,4.22
2023-02-05T09:38:03.472Z,3.85
2023-02-05T09:40:33.239Z,3.83
2023-02-05T09:43:18.753Z,3.90
2023-02-05T09:45:46.425Z,3.90
2023-02-05T09:48:33.847Z,4.18
2023-02-05T09:51:01.338Z,4.43
2023-02-05T09:53:33.694Z,4.30
2023-02-05T09:56:02.336Z,4.28
2023-02-05T09:58:31.310Z,4.28
2023-02-05T10:01:02.509Z,4.32
2023-02-05T10:03:42.742Z,3.10
2023-02-05T10:06:28.059Z,3.88
2023-02-05T10:09:02.533Z,2.70
2023-02-05T10:11:38.571Z,2.88
2023-02-05T10:14:08.995Z,3.20
2023-02-05T10:16:44.744Z,3.13
2023-02-05T10:19:21.086Z,3.30
2023-02-05T10:21:48.308Z,3.13
2023-02-05T10:24:34.273Z,2.80
2023-02-05T10:27:07.482Z,2.95
2023-02-05T10:29:34.612Z,2.70
2023-02-05T10:32:31.046Z,3.42
2023-02-05T10:35:01.401Z,3.05
2023-02-05T10:37:31.384Z,2.88
2023-02-05T10:39:58.748Z,3.03
2023-02-05T10:42:32.949Z,3.00
2023-02-05T10:45:02.241Z,3.20
2023-02-05T10:47:35.559Z,3.00
2023-02-05T10:50:04.901Z,3.65
2023-02-05T10:52:32.143Z,3.05
2023-02-05T10:54:59.280Z,2.33
2023-02-05T10:57:28.842Z,2.38
2023-02-05T11:00:00.218Z,3.00
2023-02-05T11:02:32.316Z,2.53
2023-02-05T11:05:02.685Z,2.67
2023-02-05T11:07:35.317Z,3.58
2023-02-05T11:10:14.445Z,2.40
2023-02-05T11:12:41.819Z,3.35
2023-02-05T11:15:18.745Z,2.60
2023-02-05T11:17:50.532Z,2.60
2023-02-05T11:20:17.703Z,3.30
2023-02-05T11:22:46.283Z,2.30
2023-02-05T11:25:29.823Z,2.40
2023-02-05T11:28:05.679Z,2.53
2023-02-05T11:30:52.077Z,2.88
2023-02-05T11:33:20.367Z,2.78
2023-02-05T11:36:08.063Z,2.67
2023-02-05T11:38:46.765Z,2.78
2023-02-05T11:41:16.260Z,2.83
2023-02-05T11:43:53.474Z,2.50
2023-02-05T11:46:22.344Z,2.83
2023-02-05T11:48:52.593Z,3.25
2023-02-05T11:51:29.585Z,2.70
2023-02-05T11:53:58.987Z,2.50
2023-02-05T11:56:26.902Z,2.40
2023-02-05T11:59:02.057Z,2.33
2023-02-05T12:01:32.396Z,2.58
2023-02-05T12:04:04.373Z,2.30
2023-02-05T12:06:34.444Z,2.50
2023-02-05T12:09:01.735Z,2.17
2023-02-05T12:12:16.836Z,2.10
2023-02-05T12:14:50.447Z,1.95
2023-02-05T12:17:24.505Z,2.63
2023-02-05T12:19:51.640Z,2.63
2023-02-05T12:22:36.889Z,2.30
2023-02-05T12:27:43.152Z,2.00
2023-02-05T12:30:22.131Z,2.50
2023-02-05T12:33:00.179Z,2.20
2023-02-05T12:35:46.332Z,2.58
2023-02-05T12:38:31.516Z,2.28
2023-02-05T12:41:20.494Z,2.33
2023-02-05T12:43:48.730Z,1.92
2023-02-05T12:46:19.229Z,2.83
2023-02-05T12:49:02.082Z,1.95
2023-02-05T12:51:29.303Z,2.70
2023-02-05T12:53:56.458Z,2.78
2023-02-05T12:56:26.652Z,1.80
2023-02-05T12:59:00.146Z,2.22
2023-02-05T13:01:36.408Z,2.20
2023-02-05T13:04:04.009Z,2.00
2023-02-05T13:06:34.873Z,1.92
2023-02-05T13:09:04.161Z,2.63
2023-02-05T13:11:39.930Z,2.33
2023-02-05T13:14:24.590Z,2.17
2023-02-05T13:16:54.439Z,2.70
2023-02-05T13:19:30.855Z,2.40
2023-02-05T13:22:18.718Z,3.35
2023-02-05T13:25:07.594Z,2.67
2023-02-05T13:27:59.862Z,2.83
2023-02-05T13:30:29.048Z,2.72
2023-02-05T13:32:58.042Z,3.35
2023-02-05T13:35:27.391Z,2.70
2023-02-05T13:37:54.746Z,2.92
2023-02-05T13:40:27.942Z,2.85
2023-02-05T13:43:01.086Z,3.33
2023-02-05T13:45:28.717Z,3.25
2023-02-05T13:48:05.019Z,3.20
2023-02-05T13:50:38.287Z,3.67
2023-02-05T13:53:06.213Z,3.58
2023-02-05T13:55:51.603Z,3.38
2023-02-05T13:58:22.145Z,3.35
2023-02-05T14:00:55.849Z,3.17
2023-02-05T14:03:27.041Z,2.80
2023-02-05T14:05:54.545Z,3.55
2023-02-05T14:08:24.511Z,3.05
2023-02-05T14:11:02.682Z,3.60
2023-02-05T14:13:34.496Z,3.63
2023-02-05T14:16:20.377Z,3.45
2023-02-05T14:18:49.639Z,3.45
2023-02-05T14:21:32.469Z,3.38
2023-02-05T14:24:00.896Z,4.25
2023-02-05T14:26:56.241Z,4.60
2023-02-05T14:29:42.506Z,3.50
2023-02-05T14:32:13.463Z,3.45
2023-02-05T14:34:40.563Z,4.18
2023-02-05T14:37:22.649Z,3.72
2023-02-05T14:39:49.880Z,3.83
2023-02-05T14:42:21.260Z,3.78
2023-02-05T14:44:54.656Z,3.90
2023-02-05T14:47:25.832Z,3.92
2023-02-05T14:49:59.015Z,4.20
2023-02-05T14:52:35.045Z,4.40
2023-02-05T14:55:09.724Z,4.10
2023-02-05T14:57:42.550Z,4.25
2023-02-05T15:00:28.398Z,4.22
2023-02-05T15:02:55.711Z,4.32
2023-02-05T15:05:54.187Z,4.22
2023-02-05T15:08:24.336Z,4.45
2023-02-05T15:11:00.960Z,4.57
2023-02-05T15:13:28.229Z,4.45
2023-02-05T15:16:16.706Z,4.90
2023-02-05T15:18:56.850Z,5.18
2023-02-05T15:21:23.967Z,6.15
2023-02-05T15:24:00.225Z,6.93
2023-02-05T15:26:27.445Z,5.80
2023-02-05T15:28:54.629Z,6.18
2023-02-05T15:31:28.061Z,6.47
2023-02-05T15:33:58.705Z,5.55
2023-02-05T15:36:46.132Z,5.60
2023-02-05T15:39:16.560Z,6.30
2023-02-05T15:41:44.602Z,6.03
2023-02-05T15:44:20.648Z,7.22
2023-02-05T15:46:48.605Z,7.43
2023-02-05T15:49:15.945Z,8.00
2023-02-05T15:51:43.268Z,7.40
2023-02-05T15:54:18.092Z,7.13
2023-02-05T15:59:15.265Z,6.47
2023-02-05T16:01:47.986Z,6.45
2023-02-05T16:04:18.187Z,5.97
2023-02-05T16:06:45.321Z,6.90
2023-02-05T16:09:17.200Z,6.70
2023-02-05T16:11:45.024Z,6.68
2023-02-05T16:14:14.301Z,6.57
2023-02-05T16:17:04.865Z,7.25
2023-02-05T16:19:35.460Z,8.38
2023-02-05T16:22:11.237Z,7.18
2023-02-05T16:24:41.665Z,7.50
2023-02-05T16:27:38.295Z,7.32
2023-02-05T16:30:09.030Z,7.68
2023-02-05T16:32:42.363Z,8.48
2023-02-05T16:35:23.471Z,8.98
2023-02-05T16:37:51.207Z,9.57
2023-02-05T16:40:30.026Z,7.93
2023-02-05T16:42:57.205Z,7.80
2023-02-05T16:45:25.547Z,10.13
2023-02-05T16:48:13.039Z,9.32
2023-02-05T16:50:44.460Z,9.02
2023-02-05T16:53:28.066Z,8.93
2023-02-05T16:56:12.235Z,9.40
2023-02-05T16:58:45.212Z,9.10
2023-02-05T17:01:12.440Z,9.90
2023-02-05T17:03:41.126Z,9.80
2023-02-05T17:06:15.093Z,10.27
2023-02-05T17:08:45.455Z,9.97
2023-02-05T17:11:31.800Z,10.68
2023-02-05T17:14:22.489Z,9.85
2023-02-05T17:16:55.790Z,9.85
2023-02-05T17:19:24.808Z,10.15
2023-02-05T17:22:10.947Z,10.02
2023-02-05T17:24:38.103Z,9.75
2023-02-05T17:27:05.352Z,10.38
2023-02-05T17:29:35.548Z,9.50
2023-02-05T17:32:04.278Z,10.32
2023-02-05T17:34:31.583Z,10.55
2023-02-05T17:36:58.776Z,10.27
2023-02-05T17:39:25.930Z,10.38
2023-02-05T17:42:07.478Z,9.20
2023-02-05T17:44:35.631Z,9.90
2023-02-05T17:47:04.018Z,10.85
2023-02-05T17:49:31.633Z,9.35
2023-02-05T17:51:58.836Z,10.40
2023-02-05T17:54:26.421Z,9.93
2023-02-05T17:56:54.944Z,9.77
2023-02-05T17:59:23.180Z,9.00
2023-02-05T18:01:50.947Z,9.65
2023-02-05T18:04:18.747Z,10.68
2023-02-05T18:06:46.873Z,9.65
2023-02-05T18:09:14.046Z,10.25
2023-02-05T18:11:43.400Z,9.20
2023-02-05T18:14:10.650Z,9.43
2023-02-05T18:16:37.930Z,9.52
2023-02-05T18:19:05.346Z,9.35
2023-02-05T18:21:32.931Z,8.90
2023-02-05T18:24:00.124Z,9.15
2023-02-05T18:26:27.323Z,9.13
2023-02-05T18:28:54.717Z,9.10
2023-02-05T18:31:22.262Z,9.23
2023-02-05T18:33:51.650Z,10.00
2023-02-05T18:36:19.185Z,10.48
2023-02-05T18:38:46.408Z,11.57
2023-02-05T18:41:15.281Z,10.70
2023-02-05T18:43:42.707Z,10.63
2023-02-05T18:46:11.866Z,10.60
2023-02-05T18:48:41.065Z,9.80
2023-02-05T18:51:09.669Z,10.40
2023-02-05T18:53:38.966Z,9.75
2023-02-05T18:56:07.651Z,9.38
2023-02-05T18:58:35.391Z,9.98
2023-02-05T19:01:10.128Z,10.10
2023-02-05T19:03:41.299Z,9.43
2023-02-05T19:06:09.644Z,10.02
2023-02-05T19:08:37.085Z,9.52
2023-02-05T19:11:10.911Z,10.32
2023-02-05T19:13:38.083Z,9.60
2023-02-05T19:16:12.643Z,11.05
2023-02-05T19:18:40.556Z,10.50
2023-02-05T19:21:08.479Z,10.57
2023-02-05T19:23:36.272Z,10.43
2023-02-05T19:26:10.532Z,9.70
2023-02-05T19:28:38.936Z,10.00
2023-02-05T19:31:07.445Z,10.48
2023-02-05T19:33:35.906Z,11.73
2023-02-05T19:36:03.567Z,11.32
2023-02-05T19:38:31.173Z,12.45
2023-02-05T19:41:05.284Z,13.48
2023-02-05T19:43:32.480Z,12.15
2023-02-05T19:46:04.082Z,11.93
2023-02-05T19:48:31.420Z,10.77
2023-02-05T19:51:08.937Z,10.65
2023-02-05T19:53:37.893Z,10.13
2023-02-05T19:56:07.276Z,10.45
2023-02-05T19:58:38.467Z,9.77
2023-02-05T20:01:15.740Z,9.80
2023-02-05T20:03:44.769Z,10.35
2023-02-05T20:06:12.836Z,9.82
2023-02-05T20:08:40.248Z,9.73
2023-02-05T20:11:07.555Z,10.27
2023-02-05T20:13:35.634Z,10.25
2023-02-05T20:16:07.024Z,9.70
2023-02-05T20:18:34.597Z,9.70
2023-02-05T20:21:05.416Z,9.98
2023-02-05T20:23:33.241Z,9.38
2023-02-05T20:26:03.993Z,9.25
2023-02-05T20:28:32.174Z,9.82
2023-02-05T20:31:18.186Z,9.35
2023-02-05T20:33:45.460Z,8.98
2023-02-05T20:36:13.590Z,9.18
2023-02-05T20:38:40.871Z,8.85
2023-02-05T20:41:14.109Z,8.70
2023-02-05T20:43:41.327Z,7.82
2023-02-05T20:46:09.132Z,8.13
2023-02-05T20:48:36.350Z,7.70
2023-02-05T20:51:10.910Z,7.57
2023-02-05T20:53:38.601Z,7.30
2023-02-05T20:56:07.258Z,6.93
2023-02-05T20:58:34.712Z,7.07
2023-02-05T21:01:07.923Z,7.20
2023-02-05T21:03:35.241Z,6.72
2023-02-05T21:06:02.414Z,6.88
2023-02-05T21:08:29.672Z,5.90
2023-02-05T21:10:56.845Z,6.10
2023-02-05T21:13:24.064Z,5.72
2023-02-05T21:15:55.244Z,5.53
2023-02-05T21:18:23.005Z,5.20
2023-02-05T21:20:50.611Z,5.10
2023-02-05T21:23:17.851Z,5.32
2023-02-05T21:25:45.374Z,5.65
2023-02-05T21:28:12.548Z,5.22
2023-02-05T21:30:40.439Z,5.80
2023-02-05T21:33:07.645Z,6.10
2023-02-05T21:35:37.507Z,6.43
2023-02-05T21:38:04.658Z,5.78
2023-02-05T21:40:31.926Z,6.65
2023-02-05T21:42:59.109Z,6.20
2023-02-05T21:45:26.356Z,6.80
2023-02-05T21:47:53.517Z,7.03
2023-02-05T21:50:20.737Z,7.18
2023-02-05T21:52:47.870Z,6.70
2023-02-05T21:55:15.084Z,6.97
2023-02-05T21:57:42.242Z,8.32
2023-02-05T22:00:09.737Z,7.18
2023-02-05T22:02:37.483Z,7.18
2023-02-05T22:05:04.649Z,7.03
2023-02-05T22:07:31.921Z,7.60
2023-02-05T22:09:59.055Z,7.32
2023-02-05T22:12:26.207Z,8.20
2023-02-05T22:14:53.356Z,7.88
2023-02-05T22:17:20.549Z,6.75
2023-02-05T22:19:47.773Z,7.15
2023-02-05T22:22:14.915Z,7.78
2023-02-05T22:24:42.073Z,6.60
2023-02-05T22:27:09.344Z,6.22
2023-02-05T22:29:36.530Z,6.63
2023-02-05T22:32:03.655Z,6.20
2023-02-05T22:34:30.775Z,5.70
2023-02-05T22:36:59.669Z,5.63
2023-02-05T22:39:26.817Z,6.25
2023-02-05T22:41:53.972Z,6.20
2023-02-05T22:44:21.134Z,5.85
2023-02-05T22:46:48.379Z,5.82
2023-02-05T22:49:15.764Z,6.32
2023-02-05T22:51:43.484Z,6.22
2023-02-05T22:54:11.918Z,5.75
2023-02-05T22:56:39.506Z,6.32
2023-02-05T22:59:07.018Z,6.28
2023-02-05T23:01:35.384Z,6.00
2023-02-05T23:04:03.298Z,5.60
2023-02-05T23:06:35.234Z,6.03
2023-02-05T23:09:03.938Z,5.93
2023-02-05T23:11:31.930Z,5.32
2023-02-05T23:13:59.589Z,5.75
2023-02-05T23:16:31.536Z,5.57
2023-02-05T23:19:03.538Z,5.80
2023-02-05T23:21:31.770Z,5.40
2023-02-05T23:23:59.117Z,5.72
2023-02-05T23:26:31.873Z,5.93
2023-02-05T23:28:59.123Z,5.82
2023-02-05T23:31:26.843Z,6.00
2023-02-05T23:33:54.051Z,6.13
2023-02-05T23:36:21.400Z,6.65
2023-02-05T23:38:49.948Z,6.80
2023-02-05T23:41:35.240Z,6.25
2023-02-05T23:44:06.659Z,6.75
2023-02-05T23:46:33.917Z,6.72
2023-02-05T23:49:01.036Z,6.90
2023-02-05T23:51:28.243Z,6.85
2023-02-05T23:53:55.409Z,7.18
2023-02-05T23:56:22.608Z,6.28
2023-02-05T23:58:49.748Z,6.97
